Time;durP1;ratioP1;P1;durP2;ratioP2;P2;SDS_P1;SDS_P2;PMS_P1;PMS_P2;Temp;Humidity;BMP_temperature;BMP_pressure;BME280_temperature;BME280_humidity;BME280_pressure;Samples;Min_cycle;Max_cycle;Signal;HPM_P1;HPM_P2
2021/11/18 00:00:20;;;;;;;190.67;29.00;;;6.90;99.90;;;;;;6288486;22;20484;-71
2021/11/18 00:02:49;;;;;;;148.50;18.60;;;6.90;99.90;;;;;;6288118;22;20420;-71
2021/11/18 00:05:22;;;;;;;151.63;25.70;;;6.90;99.90;;;;;;6287908;22;20399;-71
2021/11/18 00:07:52;;;;;;;190.63;22.13;;;6.90;99.90;;;;;;6277761;22;20504;-71
2021/11/18 00:10:22;;;;;;;92.80;14.83;;;6.90;99.90;;;;;;6288822;22;20393;-71
2021/11/18 00:12:51;;;;;;;251.70;28.30;;;6.90;99.90;;;;;;6287895;22;20735;-71
2021/11/18 00:15:20;;;;;;;143.07;17.70;;;6.90;99.90;;;;;;6287662;22;20429;-71
2021/11/18 00:17:48;;;;;;;57.93;14.63;;;6.90;99.90;;;;;;6287462;22;20400;-71
2021/11/18 00:20:18;;;;;;;106.03;13.37;;;6.80;99.90;;;;;;6287652;22;20404;-71
2021/11/18 00:22:47;;;;;;;157.73;22.73;;;6.90;99.90;;;;;;6250117;22;20437;-71
2021/11/18 00:25:15;;;;;;;162.17;24.23;;;6.80;99.90;;;;;;6288256;22;20727;-71
2021/11/18 00:27:43;;;;;;;166.03;24.80;;;6.80;99.90;;;;;;6287809;22;20425;-71
2021/11/18 00:30:14;;;;;;;154.40;23.10;;;6.80;99.90;;;;;;6250078;22;20794;-71
2021/11/18 00:32:43;;;;;;;133.33;20.87;;;6.80;99.90;;;;;;6287371;22;20421;-71
2021/11/18 00:35:15;;;;;;;164.80;23.63;;;6.80;99.90;;;;;;6250357;22;20413;-71
2021/11/18 00:37:48;;;;;;;203.97;23.07;;;6.80;99.90;;;;;;6287407;22;20802;-71
2021/11/18 00:40:21;;;;;;;125.53;16.83;;;6.80;99.90;;;;;;6277564;22;20403;-71
2021/11/18 00:42:50;;;;;;;219.97;21.53;;;6.80;99.90;;;;;;6287591;22;20802;-71
2021/11/18 00:45:20;;;;;;;110.70;17.00;;;6.80;99.90;;;;;;6287330;22;20898;-71
2021/11/18 00:47:49;;;;;;;139.37;16.50;;;6.80;99.90;;;;;;6287336;22;20417;-72
2021/11/18 00:50:19;;;;;;;152.87;16.43;;;6.80;99.90;;;;;;6249977;22;20943;-71
2021/11/18 00:52:48;;;;;;;231.40;23.43;;;6.80;99.90;;;;;;6287629;22;20900;-71
2021/11/18 00:55:18;;;;;;;148.10;19.93;;;6.90;99.90;;;;;;6250023;22;20780;-71
2021/11/18 00:57:46;;;;;;;93.47;19.60;;;6.90;99.90;;;;;;6251762;22;20444;-71
2021/11/18 01:00:17;;;;;;;110.73;17.33;;;6.90;99.90;;;;;;6288584;22;20428;-71
2021/11/18 01:02:46;;;;;;;211.87;24.83;;;6.90;99.90;;;;;;6275976;22;20433;-71
2021/11/18 01:05:16;;;;;;;196.37;24.63;;;6.90;99.90;;;;;;6288096;22;20400;-71
2021/11/18 01:07:44;;;;;;;279.87;29.97;;;6.90;99.90;;;;;;6249700;22;20934;-71
2021/11/18 01:10:16;;;;;;;168.77;24.53;;;6.90;99.90;;;;;;6249877;22;20412;-71
2021/11/18 01:12:45;;;;;;;100.77;16.53;;;6.90;99.90;;;;;;6249861;22;20798;-71
2021/11/18 01:15:17;;;;;;;89.23;15.30;;;6.90;99.90;;;;;;6287318;22;20396;-71
2021/11/18 01:17:46;;;;;;;139.77;24.07;;;6.90;99.90;;;;;;6249865;22;20754;-71
2021/11/18 01:20:18;;;;;;;184.17;23.77;;;6.90;99.90;;;;;;6286995;22;20404;-71
2021/11/18 01:22:47;;;;;;;136.70;23.57;;;7.00;99.90;;;;;;6287047;22;20417;-71
2021/11/18 01:25:16;;;;;;;181.90;17.60;;;7.00;99.90;;;;;;6287186;22;20393;-71
2021/11/18 01:27:47;;;;;;;275.93;31.37;;;7.00;99.90;;;;;;6249544;22;20429;-71
2021/11/18 01:30:29;;;;;;;239.87;29.27;;;7.00;99.90;;;;;;6249643;22;20406;-71
2021/11/18 01:32:59;;;;;;;210.13;21.53;;;7.00;99.90;;;;;;6249560;22;20923;-72
2021/11/18 01:35:35;;;;;;;194.37;23.20;;;7.00;99.90;;;;;;6249719;22;20462;-71
2021/11/18 01:38:04;;;;;;;174.63;24.10;;;7.10;99.90;;;;;;6276407;22;20409;-71
2021/11/18 01:40:37;;;;;;;117.30;24.03;;;7.10;99.90;;;;;;6249609;22;20502;-71
2021/11/18 01:43:23;;;;;;;202.60;24.97;;;7.10;99.90;;;;;;6249520;22;20507;-71
2021/11/18 01:45:52;;;;;;;99.63;15.77;;;7.10;99.90;;;;;;6249309;22;20412;-72
2021/11/18 01:48:21;;;;;;;143.00;22.33;;;7.20;99.90;;;;;;6249435;22;20433;-72
2021/11/18 01:50:53;;;;;;;154.23;23.70;;;7.20;99.90;;;;;;6286877;22;20446;-72
2021/11/18 01:53:27;;;;;;;107.67;18.00;;;7.20;99.90;;;;;;6249509;22;20434;-71
2021/11/18 01:55:57;;;;;;;189.73;19.20;;;7.20;99.90;;;;;;6249531;22;20405;-71
2021/11/18 01:58:26;;;;;;;182.53;27.90;;;7.20;99.90;;;;;;6249523;22;20435;-71
2021/11/18 02:01:10;;;;;;;196.33;29.00;;;7.20;99.90;;;;;;6249613;22;20900;-72
2021/11/18 02:03:39;;;;;;;82.03;14.60;;;7.30;99.90;;;;;;6250548;22;20457;-71
2021/11/18 02:06:23;;;;;;;155.60;18.53;;;7.30;99.90;;;;;;6249484;22;20420;-71
2021/11/18 02:08:52;;;;;;;160.50;19.83;;;7.30;99.90;;;;;;6249749;22;20497;-71
2021/11/18 02:11:29;;;;;;;122.67;22.17;;;7.30;99.90;;;;;;6249532;22;20944;-71
2021/11/18 02:13:59;;;;;;;126.60;26.57;;;7.30;99.90;;;;;;6249333;22;20533;-71
2021/11/18 02:16:27;;;;;;;142.33;19.53;;;7.30;99.90;;;;;;6286796;22;20389;-71
2021/11/18 02:18:56;;;;;;;270.23;30.60;;;7.30;99.90;;;;;;6250174;22;20440;-71
2021/11/18 02:21:26;;;;;;;258.77;34.67;;;7.30;99.90;;;;;;6251318;22;20419;-72
2021/11/18 02:23:56;;;;;;;162.80;22.40;;;7.30;99.90;;;;;;6251007;22;20777;-71
2021/11/18 02:26:28;;;;;;;162.53;21.37;;;7.30;99.90;;;;;;6251431;22;20481;-71
2021/11/18 02:28:58;;;;;;;136.40;25.33;;;7.30;99.90;;;;;;6276768;22;20438;-71
2021/11/18 02:31:35;;;;;;;135.80;24.50;;;7.40;99.90;;;;;;6251770;22;20412;-71
2021/11/18 02:34:10;;;;;;;151.33;21.13;;;7.40;99.90;;;;;;6251762;22;20440;-71
2021/11/18 02:36:41;;;;;;;113.97;21.27;;;7.30;99.90;;;;;;6246123;23;20498;-71
2021/11/18 02:39:09;;;;;;;154.53;22.60;;;7.40;99.90;;;;;;6246155;23;20900;-71
2021/11/18 02:41:39;;;;;;;142.00;22.70;;;7.30;99.90;;;;;;6246112;23;20778;-71
2021/11/18 02:44:08;;;;;;;246.80;31.87;;;7.30;99.90;;;;;;6246060;22;20437;-71
2021/11/18 02:46:37;;;;;;;224.37;22.63;;;7.40;99.90;;;;;;6246098;23;20468;-71
2021/11/18 02:49:06;;;;;;;194.77;27.53;;;7.30;99.90;;;;;;6246041;23;20495;-71
2021/11/18 02:51:36;;;;;;;174.37;29.27;;;7.40;99.90;;;;;;6246046;23;20440;-72
2021/11/18 02:54:10;;;;;;;214.33;27.70;;;7.40;99.90;;;;;;6246011;22;20444;-72
2021/11/18 02:56:39;;;;;;;160.20;28.93;;;7.40;99.90;;;;;;6245379;23;20740;-71
2021/11/18 02:59:08;;;;;;;207.43;30.47;;;7.40;99.90;;;;;;6245994;23;20413;-71
2021/11/18 03:01:42;;;;;;;226.30;34.13;;;7.40;99.90;;;;;;6246356;23;20799;-71
2021/11/18 03:04:11;;;;;;;166.60;22.40;;;7.40;99.90;;;;;;6245856;22;20489;-72
2021/11/18 03:06:40;;;;;;;233.20;25.37;;;7.40;99.90;;;;;;6245872;23;20409;-71
2021/11/18 03:09:10;;;;;;;169.63;26.60;;;7.40;99.90;;;;;;6245807;23;20438;-71
2021/11/18 03:11:39;;;;;;;148.97;21.70;;;7.40;99.90;;;;;;6245990;23;20905;-71
2021/11/18 03:14:09;;;;;;;125.93;22.30;;;7.40;99.90;;;;;;6246172;22;20437;-71
2021/11/18 03:16:49;;;;;;;177.63;23.60;;;7.40;99.90;;;;;;6245869;23;20935;-71
2021/11/18 03:19:22;;;;;;;168.20;26.13;;;7.40;99.90;;;;;;6245810;23;20750;-72
2021/11/18 03:21:50;;;;;;;208.57;29.90;;;7.40;99.90;;;;;;6245775;23;20419;-72
2021/11/18 03:24:21;;;;;;;207.30;49.30;;;7.40;99.90;;;;;;6245759;22;20441;-72
2021/11/18 03:26:53;;;;;;;146.40;27.93;;;7.40;99.90;;;;;;6246414;23;20801;-72
2021/11/18 03:29:26;;;;;;;196.17;26.70;;;7.40;99.90;;;;;;6246098;23;20824;-71
2021/11/18 03:31:55;;;;;;;151.90;24.67;;;7.40;99.90;;;;;;6257925;23;20399;-72
2021/11/18 03:34:29;;;;;;;178.97;34.70;;;7.40;99.90;;;;;;6248215;22;20476;-72
2021/11/18 03:36:59;;;;;;;208.60;26.20;;;7.40;99.90;;;;;;6253570;23;20902;-72
2021/11/18 03:39:29;;;;;;;230.87;27.30;;;7.40;99.90;;;;;;6256682;23;20480;-71
2021/11/18 03:42:06;;;;;;;184.17;30.07;;;7.40;99.90;;;;;;6257349;23;20407;-72
2021/11/18 03:44:36;;;;;;;205.60;39.90;;;7.40;99.90;;;;;;6256967;23;20434;-72
2021/11/18 03:47:08;;;;;;;171.57;28.07;;;7.40;99.90;;;;;;6256763;23;20414;-72
2021/11/18 03:49:40;;;;;;;207.37;35.83;;;7.40;99.90;;;;;;6255669;23;20530;-72
2021/11/18 03:52:12;;;;;;;175.80;20.43;;;7.40;99.90;;;;;;6255285;22;20483;-72
2021/11/18 03:54:43;;;;;;;168.00;20.70;;;7.40;99.90;;;;;;6252312;23;20406;-72
2021/11/18 03:57:12;;;;;;;138.80;22.13;;;7.40;99.90;;;;;;6258600;22;20384;-71
2021/11/18 03:59:48;;;;;;;153.67;33.03;;;7.40;99.90;;;;;;6246015;23;20729;-71
2021/11/18 04:02:21;;;;;;;133.00;24.60;;;7.40;99.90;;;;;;6248022;22;20424;-72
2021/11/18 04:04:53;;;;;;;161.00;38.07;;;7.40;99.90;;;;;;6247090;23;20418;-72
2021/11/18 04:07:22;;;;;;;223.03;26.27;;;7.40;99.90;;;;;;6245693;23;20460;-71
2021/11/18 04:09:56;;;;;;;144.13;29.73;;;7.40;99.90;;;;;;6246058;23;20466;-72
2021/11/18 04:12:24;;;;;;;225.80;37.13;;;7.40;99.90;;;;;;6245390;22;20446;-72
2021/11/18 04:14:52;;;;;;;225.03;36.17;;;7.40;99.90;;;;;;6245486;23;20414;-72
2021/11/18 04:17:21;;;;;;;211.33;40.63;;;7.40;99.90;;;;;;6257387;23;20477;-72
2021/11/18 04:19:49;;;;;;;206.63;47.33;;;7.40;99.90;;;;;;6257457;22;20398;-72
2021/11/18 04:22:18;;;;;;;142.67;34.27;;;7.40;99.90;;;;;;6245155;22;20413;-72
2021/11/18 04:24:48;;;;;;;159.40;32.37;;;7.40;99.90;;;;;;6256983;22;20403;-71
2021/11/18 04:27:17;;;;;;;179.93;42.07;;;7.40;99.90;;;;;;6245441;23;20414;-71
2021/11/18 04:29:49;;;;;;;139.77;32.73;;;7.40;99.90;;;;;;6245966;23;20434;-71
2021/11/18 04:32:21;;;;;;;208.17;41.83;;;7.40;99.90;;;;;;6256755;22;20401;-71
2021/11/18 04:34:54;;;;;;;150.10;36.27;;;7.40;99.90;;;;;;6245470;23;20418;-72
2021/11/18 04:37:23;;;;;;;191.87;36.30;;;7.40;99.90;;;;;;6244776;23;20417;-71
2021/11/18 04:39:52;;;;;;;181.10;37.50;;;7.40;99.90;;;;;;6245006;23;20466;-71
2021/11/18 04:42:23;;;;;;;203.60;35.67;;;7.50;99.90;;;;;;6244664;22;20481;-72
2021/11/18 04:45:12;;;;;;;224.30;32.73;;;7.50;99.90;;;;;;6244985;23;20470;-72
2021/11/18 04:47:40;;;;;;;172.70;28.23;;;7.50;99.90;;;;;;6244911;23;20416;-72
2021/11/18 04:50:12;;;;;;;201.10;33.97;;;7.50;99.90;;;;;;6244746;23;20956;-72
2021/11/18 04:52:40;;;;;;;184.77;33.43;;;7.50;99.90;;;;;;6244746;22;20544;-71
2021/11/18 04:55:11;;;;;;;218.60;42.70;;;7.50;99.90;;;;;;6244779;23;20952;-71
2021/11/18 04:57:43;;;;;;;206.83;35.30;;;7.50;99.90;;;;;;6244869;23;20410;-71
2021/11/18 05:00:19;;;;;;;242.97;35.00;;;7.50;99.90;;;;;;6244731;23;20408;-71
2021/11/18 05:02:49;;;;;;;240.27;40.60;;;7.50;99.90;;;;;;6245259;22;20470;-71
2021/11/18 05:05:18;;;;;;;147.53;37.43;;;7.60;99.90;;;;;;6244755;23;20884;-71
2021/11/18 05:07:46;;;;;;;253.57;43.80;;;7.60;99.90;;;;;;6256514;22;20428;-71
2021/11/18 05:10:15;;;;;;;202.07;32.70;;;7.60;99.90;;;;;;6244685;23;20461;-71
2021/11/18 05:12:45;;;;;;;172.27;30.97;;;7.60;99.90;;;;;;6244653;22;20435;-71
2021/11/18 05:15:17;;;;;;;166.90;34.43;;;7.60;99.90;;;;;;6245179;23;20500;-71
2021/11/18 05:17:47;;;;;;;179.50;31.73;;;7.60;99.90;;;;;;6245324;23;20504;-71
2021/11/18 05:20:16;;;;;;;220.73;45.07;;;7.70;99.90;;;;;;6246769;23;20409;-71
2021/11/18 05:22:45;;;;;;;158.50;28.37;;;7.70;99.90;;;;;;6249273;22;20445;-71
2021/11/18 05:25:17;;;;;;;280.17;37.67;;;7.70;99.90;;;;;;6246696;23;20492;-71
2021/11/18 05:27:47;;;;;;;172.73;38.90;;;7.70;99.90;;;;;;6246571;23;20414;-71
2021/11/18 05:30:16;;;;;;;205.07;37.73;;;7.70;99.90;;;;;;6246686;23;20436;-71
2021/11/18 05:32:45;;;;;;;182.03;34.17;;;7.70;99.90;;;;;;6244943;22;20525;-72
2021/11/18 05:35:29;;;;;;;100.90;24.10;;;7.70;99.90;;;;;;6246179;23;20407;-71
2021/11/18 05:37:57;;;;;;;290.00;51.23;;;7.70;99.90;;;;;;6244921;23;20418;-72
2021/11/18 05:40:26;;;;;;;158.33;27.00;;;7.70;99.90;;;;;;6244945;23;20414;-72
2021/11/18 05:42:57;;;;;;;283.67;37.50;;;7.80;99.90;;;;;;6244544;22;20479;-72
2021/11/18 05:45:28;;;;;;;253.60;33.80;;;7.70;99.90;;;;;;6244882;23;20419;-72
2021/11/18 05:48:09;;;;;;;210.30;33.70;;;7.80;99.90;;;;;;6244552;23;20411;-72
2021/11/18 05:50:44;;;;;;;270.53;40.57;;;7.80;99.90;;;;;;6244275;23;20437;-72
2021/11/18 05:53:15;;;;;;;163.77;28.00;;;7.80;99.90;;;;;;6244764;22;20431;-72
2021/11/18 05:55:43;;;;;;;234.90;40.67;;;7.80;99.90;;;;;;6246585;23;20796;-71
2021/11/18 05:58:14;;;;;;;279.40;48.17;;;7.80;99.90;;;;;;6246973;23;20413;-71
2021/11/18 06:00:43;;;;;;;184.53;36.73;;;7.80;99.90;;;;;;6246578;23;20421;-72
2021/11/18 06:03:11;;;;;;;256.00;36.30;;;7.80;99.90;;;;;;6246385;22;20432;-71
2021/11/18 06:05:40;;;;;;;163.80;32.30;;;7.80;99.90;;;;;;6247480;23;20446;-72
2021/11/18 06:08:09;;;;;;;154.93;43.17;;;7.90;99.90;;;;;;6246404;23;20405;-72
2021/11/18 06:10:38;;;;;;;222.57;47.20;;;7.90;99.90;;;;;;6245415;23;20442;-72
2021/11/18 06:13:08;;;;;;;151.07;32.23;;;7.90;99.90;;;;;;6245787;22;20767;-72
2021/11/18 06:15:40;;;;;;;142.83;32.43;;;7.90;99.90;;;;;;6245591;23;20453;-72
2021/11/18 06:18:10;;;;;;;95.87;27.23;;;7.90;99.90;;;;;;6246507;23;20893;-72
2021/11/18 06:20:40;;;;;;;231.60;36.27;;;7.90;99.90;;;;;;6246421;23;20421;-72
2021/11/18 06:23:11;;;;;;;228.93;32.27;;;7.90;99.90;;;;;;6246343;22;20436;-72
2021/11/18 06:25:40;;;;;;;149.67;34.80;;;8.00;99.90;;;;;;6246407;23;20435;-72
2021/11/18 06:28:13;;;;;;;171.50;35.33;;;8.00;99.90;;;;;;6246284;23;20509;-72
2021/11/18 06:30:47;;;;;;;211.33;33.43;;;8.00;99.90;;;;;;6246873;23;20447;-72
2021/11/18 06:33:16;;;;;;;160.73;24.10;;;8.00;99.90;;;;;;6246315;22;20505;-72
2021/11/18 06:35:44;;;;;;;278.60;38.87;;;8.00;99.90;;;;;;6247395;22;20756;-72
2021/11/18 06:38:33;;;;;;;177.43;28.77;;;8.00;99.90;;;;;;6251525;22;20486;-72
2021/11/18 06:41:02;;;;;;;231.20;35.53;;;8.00;99.90;;;;;;6251314;22;20438;-72
2021/11/18 06:43:30;;;;;;;149.83;32.07;;;8.00;99.90;;;;;;6251458;22;20741;-72
2021/11/18 06:46:04;;;;;;;187.30;28.67;;;8.10;99.90;;;;;;6251324;22;20408;-72
2021/11/18 06:48:33;;;;;;;130.67;29.73;;;8.10;99.90;;;;;;6251347;22;20414;-72
2021/11/18 06:51:15;;;;;;;127.93;31.23;;;8.10;99.90;;;;;;6251187;22;20432;-72
2021/11/18 06:53:45;;;;;;;165.03;28.77;;;8.10;99.90;;;;;;6251726;22;20435;-72
2021/11/18 06:56:17;;;;;;;168.47;34.53;;;8.10;99.90;;;;;;6251339;22;20927;-72
2021/11/18 06:58:46;;;;;;;219.53;25.40;;;8.10;99.90;;;;;;6250938;22;20456;-72
2021/11/18 07:01:16;;;;;;;233.30;38.67;;;8.20;99.90;;;;;;6250967;22;20491;-72
2021/11/18 07:03:44;;;;;;;207.40;34.73;;;8.20;99.90;;;;;;6250802;22;20432;-72
2021/11/18 07:06:15;;;;;;;247.07;31.87;;;8.20;99.90;;;;;;6250601;22;20420;-72
2021/11/18 07:08:45;;;;;;;202.47;29.70;;;8.20;99.90;;;;;;6250982;22;20411;-71
2021/11/18 07:11:16;;;;;;;276.87;44.33;;;8.20;99.90;;;;;;6252277;22;20769;-71
2021/11/18 07:13:44;;;;;;;259.53;35.57;;;8.20;99.90;;;;;;6252248;22;20431;-71
2021/11/18 07:16:17;;;;;;;220.63;34.53;;;8.20;99.90;;;;;;6251581;22;20427;-72
2021/11/18 07:18:48;;;;;;;187.50;32.77;;;8.20;99.90;;;;;;6251312;22;20407;-72
2021/11/18 07:21:18;;;;;;;133.83;29.17;;;8.20;99.90;;;;;;6289273;22;20396;-72
2021/11/18 07:23:46;;;;;;;181.50;35.27;;;8.20;99.90;;;;;;6251735;22;20437;-72
2021/11/18 07:26:14;;;;;;;196.93;28.57;;;8.20;99.90;;;;;;6251049;22;20717;-72
2021/11/18 07:28:45;;;;;;;127.83;25.53;;;8.30;99.90;;;;;;6251164;22;20445;-72
2021/11/18 07:31:14;;;;;;;284.53;40.57;;;8.30;99.90;;;;;;6250727;22;20468;-72
2021/11/18 07:33:49;;;;;;;105.27;23.30;;;8.30;99.90;;;;;;6250677;22;20921;-72
2021/11/18 07:36:18;;;;;;;184.23;28.20;;;8.30;99.90;;;;;;6245582;23;20973;-72
2021/11/18 07:38:47;;;;;;;172.47;35.73;;;8.30;99.90;;;;;;6245990;23;20413;-72
2021/11/18 07:41:15;;;;;;;120.33;25.83;;;8.30;99.90;;;;;;6245624;23;20445;-72
2021/11/18 07:43:54;;;;;;;251.33;36.10;;;8.30;99.90;;;;;;6246530;22;20466;-72
2021/11/18 07:47:11;;;;;;;153.83;26.30;;;8.30;99.90;;;;;;6246983;23;20413;-72
2021/11/18 07:49:41;;;;;;;247.07;31.73;;;8.30;99.90;;;;;;6246192;23;20471;-72
2021/11/18 07:52:12;;;;;;;268.40;40.80;;;8.40;99.90;;;;;;6257029;22;20439;-72
2021/11/18 07:54:41;;;;;;;123.63;27.93;;;8.40;99.90;;;;;;6257417;22;20879;-71
2021/11/18 07:57:09;;;;;;;125.30;22.40;;;8.40;99.90;;;;;;6245324;23;20903;-71
2021/11/18 07:59:38;;;;;;;224.30;35.87;;;8.40;99.90;;;;;;6245310;23;20411;-71
2021/11/18 08:02:06;;;;;;;273.57;40.73;;;8.50;99.90;;;;;;6245310;22;20436;-72
2021/11/18 08:04:34;;;;;;;219.60;28.83;;;8.50;99.90;;;;;;6245259;23;20977;-72
2021/11/18 08:07:06;;;;;;;312.70;36.60;;;8.50;99.90;;;;;;6245314;23;20417;-72
2021/11/18 08:09:35;;;;;;;165.73;23.20;;;8.50;99.90;;;;;;6246093;23;20460;-72
2021/11/18 08:12:07;;;;;;;295.17;38.73;;;8.60;99.90;;;;;;6245059;22;20467;-71
2021/11/18 08:14:36;;;;;;;262.33;34.93;;;8.60;99.90;;;;;;6245420;23;20415;-71
2021/11/18 08:17:04;;;;;;;264.97;32.83;;;8.60;99.90;;;;;;6244799;23;20412;-71
2021/11/18 08:19:32;;;;;;;173.93;23.33;;;8.60;99.90;;;;;;6245444;23;20420;-71
2021/11/18 08:22:13;;;;;;;187.83;28.23;;;8.60;99.90;;;;;;6245219;22;20485;-71
2021/11/18 08:24:43;;;;;;;164.73;25.60;;;8.70;99.90;;;;;;6245553;23;20417;-71
2021/11/18 08:27:12;;;;;;;229.60;34.20;;;8.70;99.90;;;;;;6245472;23;20436;-72
2021/11/18 08:29:40;;;;;;;135.03;20.40;;;8.70;99.90;;;;;;6253138;23;20416;-72
2021/11/18 08:32:09;;;;;;;253.27;37.47;;;8.80;99.90;;;;;;6255079;22;20521;-72
2021/11/18 08:34:43;;;;;;;156.97;30.70;;;8.80;99.90;;;;;;6260123;23;20403;-71
2021/11/18 08:37:17;;;;;;;124.97;28.20;;;8.80;99.90;;;;;;6249041;23;20421;-72
2021/11/18 08:39:46;;;;;;;102.20;21.10;;;8.80;99.90;;;;;;6257975;22;20372;-71
2021/11/18 08:42:17;;;;;;;265.70;32.73;;;8.90;99.90;;;;;;6256939;22;20462;-71
2021/11/18 08:44:49;;;;;;;161.47;32.63;;;8.90;99.90;;;;;;6245046;23;20409;-72
2021/11/18 08:47:22;;;;;;;215.47;29.57;;;9.00;99.90;;;;;;6245526;23;20424;-72
2021/11/18 08:49:55;;;;;;;184.80;28.43;;;9.00;99.90;;;;;;6246370;23;20408;-72
2021/11/18 08:52:31;;;;;;;119.47;27.53;;;9.00;99.90;;;;;;6244925;22;21230;-72
2021/11/18 08:55:06;;;;;;;191.90;31.63;;;9.10;99.90;;;;;;6244983;23;20416;-72
2021/11/18 08:57:37;;;;;;;192.57;30.37;;;9.10;99.90;;;;;;6245018;23;20415;-72
2021/11/18 09:00:20;;;;;;;365.50;41.57;;;9.20;99.90;;;;;;6245050;23;20400;-72
2021/11/18 09:03:08;;;;;;;324.03;50.30;;;9.20;99.90;;;;;;6244975;22;20932;-72
2021/11/18 09:05:36;;;;;;;283.10;31.80;;;9.20;99.90;;;;;;6244799;23;20439;-72
2021/11/18 09:08:07;;;;;;;358.77;37.20;;;9.30;99.90;;;;;;6244896;23;20445;-72
2021/11/18 09:10:38;;;;;;;261.43;37.70;;;9.30;99.90;;;;;;6245123;23;20452;-72
2021/11/18 09:13:08;;;;;;;285.33;39.77;;;9.30;99.90;;;;;;6245384;22;20503;-72
2021/11/18 09:15:37;;;;;;;263.17;37.13;;;9.30;99.90;;;;;;6245139;23;20417;-72
2021/11/18 09:18:06;;;;;;;387.97;47.37;;;9.40;99.90;;;;;;6245213;23;20425;-72
2021/11/18 09:20:55;;;;;;;220.20;28.47;;;9.50;99.90;;;;;;6244760;23;20426;-72
2021/11/18 09:23:29;;;;;;;401.43;51.87;;;9.50;99.90;;;;;;6244668;22;20516;-72
2021/11/18 09:26:02;;;;;;;323.10;39.20;;;9.50;99.90;;;;;;6244679;23;20423;-72
2021/11/18 09:28:30;;;;;;;388.13;50.33;;;9.50;99.90;;;;;;6247084;23;20417;-72
2021/11/18 09:31:21;;;;;;;372.10;46.67;;;9.60;99.90;;;;;;6245895;23;20396;-72
2021/11/18 09:33:51;;;;;;;350.90;44.90;;;9.60;99.90;;;;;;6244724;22;20960;-72
2021/11/18 09:36:21;;;;;;;301.87;38.37;;;9.60;99.90;;;;;;6244655;23;20498;-72
2021/11/18 09:38:52;;;;;;;274.07;38.33;;;9.70;99.90;;;;;;6244842;23;20413;-71
2021/11/18 09:41:52;;;;;;;284.57;41.70;;;9.70;99.90;;;;;;6244890;23;20471;-72
2021/11/18 09:45:00;;;;;;;347.57;48.27;;;9.70;99.90;;;;;;6245393;23;20769;-72
2021/11/18 09:48:17;;;;;;;403.53;54.47;;;9.80;99.90;;;;;;6244865;23;20417;-72
2021/11/18 09:50:58;;;;;;;375.97;34.40;;;9.80;99.90;;;;;;6244810;23;20496;-72
2021/11/18 09:53:43;;;;;;;331.30;40.33;;;9.80;99.90;;;;;;6244347;22;20443;-72
2021/11/18 09:56:26;;;;;;;274.67;34.07;;;9.80;99.90;;;;;;6244737;23;20771;-72
2021/11/18 09:59:24;;;;;;;546.17;55.90;;;9.80;99.90;;;;;;6256730;23;20420;-72
2021/11/18 10:02:37;;;;;;;336.40;46.57;;;9.90;99.90;;;;;;6244551;23;20410;-73
2021/11/18 10:05:08;;;;;;;385.23;50.63;;;9.90;99.90;;;;;;6244496;23;20527;-72
2021/11/18 10:07:44;;;;;;;373.47;45.03;;;9.90;99.90;;;;;;6244696;23;20409;-72
2021/11/18 10:10:26;;;;;;;490.93;58.30;;;10.00;99.90;;;;;;6257136;22;20389;-72
2021/11/18 10:13:20;;;;;;;447.00;59.03;;;10.00;99.90;;;;;;6245871;22;20524;-72
2021/11/18 10:16:02;;;;;;;434.90;47.07;;;10.10;99.90;;;;;;6216061;23;20463;-72
2021/11/18 10:18:35;;;;;;;279.03;37.60;;;10.10;99.90;;;;;;6247498;23;20409;-72
2021/11/18 10:21:07;;;;;;;478.77;61.37;;;10.20;99.90;;;;;;6258800;22;20879;-71
2021/11/18 10:23:35;;;;;;;513.63;68.90;;;10.20;99.90;;;;;;6244505;22;20486;-72
2021/11/18 10:26:07;;;;;;;436.33;52.40;;;10.20;99.90;;;;;;6256135;23;20401;-72
2021/11/18 10:28:46;;;;;;;381.20;42.87;;;10.20;99.90;;;;;;6256136;23;20444;-72
2021/11/18 10:31:21;;;;;;;291.60;36.53;;;10.30;99.90;;;;;;6256750;22;20378;-72
2021/11/18 10:33:57;;;;;;;361.30;45.07;;;10.30;99.90;;;;;;6256102;22;20494;-72
2021/11/18 10:36:43;;;;;;;414.67;43.43;;;10.30;99.90;;;;;;6266022;22;20416;-71
2021/11/18 10:39:22;;;;;;;273.50;43.80;;;10.40;99.90;;;;;;6287253;22;20381;-72
2021/11/18 10:41:55;;;;;;;142.67;38.57;;;10.40;99.90;;;;;;6288818;22;20828;-72
2021/11/18 10:44:28;;;;;;;428.27;51.03;;;10.40;99.90;;;;;;6251236;22;20428;-72
2021/11/18 10:47:01;;;;;;;516.13;51.20;;;10.40;99.90;;;;;;6289035;22;20874;-72
2021/11/18 10:49:42;;;;;;;599.57;62.93;;;10.50;99.90;;;;;;6288467;22;20430;-72
2021/11/18 10:52:25;;;;;;;442.50;42.40;;;10.50;99.90;;;;;;6251012;22;20404;-72
2021/11/18 10:55:03;;;;;;;375.20;47.40;;;10.50;99.90;;;;;;6288568;22;20875;-72
2021/11/18 10:57:32;;;;;;;466.53;61.60;;;10.50;99.90;;;;;;6287328;22;20417;-72
2021/11/18 11:00:18;;;;;;;580.47;63.43;;;10.50;99.90;;;;;;6250938;22;20412;-72
2021/11/18 11:02:46;;;;;;;427.87;55.53;;;10.50;99.90;;;;;;6288916;22;20495;-72
2021/11/18 11:05:37;;;;;;;446.97;52.50;;;10.50;99.90;;;;;;6278423;22;20776;-72
2021/11/18 11:08:25;;;;;;;390.93;50.93;;;10.60;99.90;;;;;;6288688;22;20472;-72
2021/11/18 11:11:22;;;;;;;276.23;39.63;;;10.60;99.90;;;;;;6289024;22;20382;-72
2021/11/18 11:14:13;;;;;;;363.60;46.47;;;10.60;99.90;;;;;;6288573;22;20546;-72
2021/11/18 11:17:13;;;;;;;418.63;66.53;;;10.70;99.90;;;;;;6288731;22;20435;-72
2021/11/18 11:19:47;;;;;;;357.97;52.87;;;10.70;99.90;;;;;;6248688;22;20413;-72
2021/11/18 11:22:25;;;;;;;667.93;102.33;;;10.70;99.90;;;;;;6250830;22;20419;-72
2021/11/18 11:25:29;;;;;;;653.13;86.77;;;10.70;99.90;;;;;;6288688;22;20404;-72
2021/11/18 11:28:23;;;;;;;359.83;48.93;;;10.80;99.90;;;;;;6289037;22;20416;-72
2021/11/18 11:30:58;;;;;;;281.13;35.27;;;10.80;99.90;;;;;;6288329;22;20796;-72
2021/11/18 11:33:35;;;;;;;355.77;70.47;;;10.80;99.90;;;;;;6286230;22;20473;-72
2021/11/18 11:36:11;;;;;;;580.27;77.90;;;10.90;99.90;;;;;;6283478;22;20433;-72
2021/11/18 11:38:51;;;;;;;674.40;85.90;;;10.90;99.90;;;;;;6220296;23;20530;-72
2021/11/18 11:41:54;;;;;;;651.87;86.37;;;10.90;99.90;;;;;;6220496;23;20409;-72
2021/11/18 11:44:33;;;;;;;551.70;56.43;;;10.90;99.90;;;;;;6257577;22;20448;-72
2021/11/18 11:47:06;;;;;;;457.10;69.17;;;10.90;99.90;;;;;;6257500;23;20856;-72
2021/11/18 11:49:40;;;;;;;551.67;97.23;;;11.00;99.90;;;;;;6257180;23;20383;-72
2021/11/18 11:52:32;;;;;;;415.13;72.87;;;11.00;99.90;;;;;;6221278;22;20393;-72
2021/11/18 11:55:32;;;;;;;392.93;59.27;;;11.00;99.90;;;;;;6243246;23;20445;-72
2021/11/18 11:58:07;;;;;;;539.33;53.53;;;11.00;99.90;;;;;;6258228;23;20731;-71
2021/11/18 12:00:48;;;;;;;427.47;71.23;;;11.00;99.90;;;;;;6256984;23;20421;-72
2021/11/18 12:03:25;;;;;;;465.27;87.67;;;11.10;99.90;;;;;;6257038;22;20402;-72
2021/11/18 12:06:12;;;;;;;395.13;84.53;;;11.10;99.90;;;;;;6247209;23;20729;-72
2021/11/18 12:08:47;;;;;;;522.20;70.43;;;11.10;99.90;;;;;;6257818;23;20390;-72
2021/11/18 12:11:19;;;;;;;473.27;84.07;;;11.10;99.90;;;;;;6247383;23;20414;-72
2021/11/18 12:13:54;;;;;;;478.00;87.40;;;11.20;99.90;;;;;;6257589;22;20529;-72
2021/11/18 12:16:37;;;;;;;529.37;96.10;;;11.20;99.90;;;;;;6220613;23;20496;-73
2021/11/18 12:19:17;;;;;;;574.13;104.50;;;11.20;99.90;;;;;;6219999;23;20410;-72
2021/11/18 12:21:46;;;;;;;509.77;92.53;;;11.20;99.90;;;;;;6247063;23;20472;-72
2021/11/18 12:24:18;;;;;;;1514.80;242.43;;;11.20;99.90;;;;;;6256746;22;20471;-72
2021/11/18 12:27:01;;;;;;;1957.67;377.17;;;11.20;99.90;;;;;;6219946;23;20414;-72
2021/11/18 12:29:41;;;;;;;593.53;99.63;;;11.20;99.90;;;;;;6257505;23;20856;-72
2021/11/18 12:32:33;;;;;;;721.17;153.97;;;11.20;99.90;;;;;;6257304;22;20837;-72
2021/11/18 12:35:35;;;;;;;675.90;115.20;;;11.20;99.90;;;;;;6219682;23;20468;-73
2021/11/18 12:38:36;;;;;;;356.73;39.13;;;11.20;99.90;;;;;;6286947;22;20440;-72
2021/11/18 12:41:32;;;;;;;472.93;46.47;;;11.20;99.90;;;;;;6288149;22;20380;-72
2021/11/18 12:44:21;;;;;;;385.97;70.00;;;11.20;99.90;;;;;;6277752;22;20432;-72
2021/11/18 12:47:02;;;;;;;391.97;59.63;;;11.20;99.90;;;;;;6250190;22;20432;-72
2021/11/18 12:50:01;;;;;;;595.70;96.93;;;11.10;99.90;;;;;;6251480;22;20451;-73
2021/11/18 12:52:34;;;;;;;448.60;68.37;;;11.20;99.90;;;;;;6287952;22;20454;-72
2021/11/18 12:55:31;;;;;;;545.60;70.37;;;11.20;99.90;;;;;;6287426;22;20423;-73
2021/11/18 12:58:38;;;;;;;639.27;77.70;;;11.20;99.90;;;;;;6287798;22;20400;-73
2021/11/18 13:01:39;;;;;;;495.27;76.80;;;11.20;99.90;;;;;;6277267;22;20411;-72